Time,TemperatureF,DewpointF,PressureIn,WindDirection,WindDirectionDegrees,WindSpeedMPH,WindSpeedGustMPH,Humidity,HourlyPrecipIn,Conditions,Clouds,dailyrainin,SoftwareType,DateUTC
2013-06-28 00:01:00,65.7,64.8,29.65,SSE,165,0.0,2.0,97,0.00,,,0.00,meteohub,2013-06-28 04:01:00,
2013-06-28 00:02:00,65.7,64.8,29.65,SSE,165,0.0,2.0,97,0.00,,,0.00,meteohub,2013-06-28 04:02:00,
2013-06-28 00:04:00,65.7,64.4,29.66,SSE,165,0.0,2.0,96,0.00,,,0.00,meteohub,2013-06-28 04:04:00,
2013-06-28 00:09:00,65.7,64.8,29.65,SSE,165,0.0,2.0,97,0.00,,,0.00,meteohub,2013-06-28 04:09:00,
2013-06-28 00:14:00,65.7,64.4,29.65,SSE,165,0.0,1.0,96,0.00,,,0.00,meteohub,2013-06-28 04:14:00,
2013-06-28 00:19:00,65.7,64.4,29.65,SSE,165,0.0,0.0,96,0.00,,,0.00,meteohub,2013-06-28 04:19:00,
2013-06-28 00:24:00,65.5,64.2,29.65,SSE,165,0.0,1.0,96,0.00,,,0.00,meteohub,2013-06-28 04:24:00,
2013-06-28 00:29:00,65.5,64.2,29.64,SSE,165,0.0,1.0,96,0.00,,,0.00,meteohub,2013-06-28 04:29:00,
2013-06-28 00:35:00,65.3,64.4,29.64,SSE,165,0.0,1.0,97,0.00,,,0.00,meteohub,2013-06-28 04:35:00,
2013-06-28 00:40:00,65.3,64.4,29.64,SSE,165,0.0,1.0,97,0.00,,,0.00,meteohub,2013-06-28 04:40:00,
2013-06-28 00:45:00,65.1,64.2,29.63,SSE,165,0.0,0.0,97,0.00,,,0.00,meteohub,2013-06-28 04:45:00,
2013-06-28 00:50:00,65.1,64.2,29.63,SSE,165,0.0,0.0,97,0.00,,,0.00,meteohub,2013-06-28 04:50:00,
2013-06-28 00:55:00,64.9,64.0,29.63,SSE,165,0.0,0.0,97,0.00,,,0.00,meteohub,2013-06-28 04:55:00,
2013-06-28 01:00:00,64.9,63.9,29.62,SSE,165,0.0,0.0,96,0.00,,,0.00,meteohub,2013-06-28 05:00:00,
2013-06-28 01:05:00,64.8,63.7,29.62,SSE,165,0.0,0.0,96,0.00,,,0.00,meteohub,2013-06-28 05:05:00,
2013-06-28 01:10:00,64.6,63.5,29.62,SSE,165,0.0,0.0,96,0.00,,,0.00,meteohub,2013-06-28 05:10:00,
2013-06-28 01:15:00,64.4,63.3,29.62,SSE,165,0.0,0.0,96,0.00,,,0.00,meteohub,2013-06-28 05:15:00,
2013-06-28 01:20:00,64.2,63.1,29.62,SSE,165,1.0,0.0,96,0.00,,,0.00,meteohub,2013-06-28 05:20:00,
2013-06-28 01:25:00,64.0,63.0,29.62,SSE,165,1.0,2.0,96,0.00,,,0.00,meteohub,2013-06-28 05:25:00,
2013-06-28 01:30:00,64.0,63.1,29.62,SSE,165,0.0,3.0,97,0.00,,,0.00,meteohub,2013-06-28 05:30:00,
2013-06-28 01:35:00,63.9,63.0,29.62,SSE,165,0.0,3.0,97,0.00,,,0.00,meteohub,2013-06-28 05:35:00,
2013-06-28 01:40:00,63.9,63.0,29.62,SSE,165,0.0,2.0,97,0.00,,,0.00,meteohub,2013-06-28 05:40:00,
2013-06-28 01:45:00,63.9,63.0,29.62,SSE,165,1.0,0.0,97,0.00,,,0.00,meteohub,2013-06-28 05:45:00,
2013-06-28 01:51:00,63.9,63.0,29.62,SSE,165,1.0,1.0,97,0.00,,,0.00,meteohub,2013-06-28 05:51:00,
2013-06-28 01:56:00,63.7,62.8,29.62,SSE,165,0.0,2.0,97,0.00,,,0.00,meteohub,2013-06-28 05:56:00,
2013-06-28 02:01:00,63.7,62.8,29.62,SSE,165,0.0,2.0,97,0.00,,,0.00,meteohub,2013-06-28 06:01:00,
2013-06-28 02:06:00,63.7,62.8,29.62,SSE,165,0.0,2.0,97,0.00,,,0.00,meteohub,2013-06-28 06:06:00,
2013-06-28 02:11:00,63.5,62.6,29.61,SSE,165,0.0,1.0,97,0.00,,,0.00,meteohub,2013-06-28 06:11:00,
2013-06-28 02:16:00,63.3,62.4,29.61,SSE,165,0.0,0.0,97,0.00,,,0.00,meteohub,2013-06-28 06:16:00,
2013-06-28 02:21:00,63.5,62.6,29.61,SSE,165,0.0,0.0,97,0.00,,,0.00,meteohub,2013-06-28 06:21:00,
2013-06-28 02:26:00,63.7,62.8,29.61,SSE,165,0.0,0.0,97,0.00,,,0.00,meteohub,2013-06-28 06:26:00,
2013-06-28 02:31:00,63.5,62.6,29.61,SSE,165,1.0,0.0,97,0.00,,,0.00,meteohub,2013-06-28 06:31:00,
2013-06-28 02:36:00,63.3,62.4,29.62,SSE,165,0.0,2.0,97,0.00,,,0.00,meteohub,2013-06-28 06:36:00,
2013-06-28 02:41:00,63.5,62.6,29.62,SSE,165,1.0,2.0,97,0.00,,,0.00,meteohub,2013-06-28 06:41:00,
2013-06-28 02:46:00,63.7,62.8,29.62,SSE,165,0.0,2.0,97,0.00,,,0.00,meteohub,2013-06-28 06:46:00,
2013-06-28 02:51:00,63.7,62.8,29.62,SSE,165,0.0,2.0,97,0.00,,,0.00,meteohub,2013-06-28 06:51:00,
2013-06-28 02:56:00,63.7,62.8,29.63,SSE,165,1.0,2.0,97,0.00,,,0.00,meteohub,2013-06-28 06:56:00,
2013-06-28 03:01:00,63.7,62.8,29.63,SSE,165,1.0,1.0,97,0.00,,,0.00,meteohub,2013-06-28 07:01:00,
2013-06-28 03:07:00,63.9,63.0,29.63,SSE,165,0.0,1.0,97,0.00,,,0.00,meteohub,2013-06-28 07:07:00,
2013-06-28 03:12:00,64.0,63.5,29.62,SSE,165,0.0,1.0,98,0.00,,,0.00,meteohub,2013-06-28 07:12:00,
2013-06-28 03:17:00,64.2,63.7,29.62,SSE,165,0.0,1.0,98,0.00,,,0.00,meteohub,2013-06-28 07:17:00,
2013-06-28 03:22:00,64.4,63.9,29.62,SSE,165,0.0,1.0,98,0.00,,,0.00,meteohub,2013-06-28 07:22:00,
2013-06-28 03:27:00,64.6,63.7,29.62,SSE,165,0.0,1.0,97,0.00,,,0.00,meteohub,2013-06-28 07:27:00,
2013-06-28 03:32:00,64.4,63.5,29.62,SSE,165,0.0,0.0,97,0.00,,,0.00,meteohub,2013-06-28 07:32:00,
2013-06-28 03:37:00,64.2,63.3,29.62,SSE,165,0.0,0.0,97,0.00,,,0.00,meteohub,2013-06-28 07:37:00,
2013-06-28 03:42:00,64.0,63.1,29.62,SSE,165,0.0,0.0,97,0.00,,,0.00,meteohub,2013-06-28 07:42:00,
2013-06-28 03:47:00,64.0,63.1,29.62,SSE,165,0.0,0.0,97,0.00,,,0.00,meteohub,2013-06-28 07:47:00,
2013-06-28 03:52:00,63.9,63.0,29.61,SSE,165,0.0,0.0,97,0.00,,,0.00,meteohub,2013-06-28 07:52:00,
2013-06-28 03:57:00,63.9,63.0,29.61,SSE,165,0.0,0.0,97,0.00,,,0.00,meteohub,2013-06-28 07:57:00,
2013-06-28 04:02:00,63.9,63.0,29.61,SSE,165,0.0,0.0,97,0.00,,,0.00,meteohub,2013-06-28 08:02:00,
2013-06-28 04:07:00,63.7,62.8,29.61,SSE,165,0.0,0.0,97,0.00,,,0.00,meteohub,2013-06-28 08:07:00,
2013-06-28 04:12:00,63.9,63.0,29.61,SSE,165,0.0,0.0,97,0.00,,,0.00,meteohub,2013-06-28 08:12:00,
2013-06-28 04:17:00,63.9,63.0,29.61,SSE,165,0.0,0.0,97,0.00,,,0.00,meteohub,2013-06-28 08:17:00,
2013-06-28 04:22:00,64.0,63.5,29.60,SSE,165,0.0,0.0,98,0.00,,,0.00,meteohub,2013-06-28 08:22:00,
2013-06-28 04:27:00,64.0,63.5,29.60,SSE,165,0.0,0.0,98,0.00,,,0.00,meteohub,2013-06-28 08:27:00,
2013-06-28 04:32:00,64.0,63.5,29.60,SSE,165,0.0,0.0,98,0.00,,,0.00,meteohub,2013-06-28 08:32:00,
2013-06-28 04:37:00,64.0,63.5,29.60,SSE,165,0.0,1.0,98,0.00,,,0.00,meteohub,2013-06-28 08:37:00,
2013-06-28 04:42:00,64.0,63.5,29.60,SSE,165,0.0,1.0,98,0.00,,,0.00,meteohub,2013-06-28 08:42:00,
2013-06-28 04:47:00,64.0,63.5,29.60,SSE,165,0.0,1.0,98,0.00,,,0.00,meteohub,2013-06-28 08:47:00,
2013-06-28 04:52:00,64.0,63.5,29.60,SSE,165,0.0,1.0,98,0.00,,,0.00,meteohub,2013-06-28 08:52:00,
2013-06-28 04:57:00,64.0,63.5,29.60,SSE,165,0.0,1.0,98,0.00,,,0.00,meteohub,2013-06-28 08:57:00,
2013-06-28 05:02:00,64.0,63.5,29.60,SSE,165,0.0,0.0,98,0.00,,,0.00,meteohub,2013-06-28 09:02:00,
2013-06-28 05:07:00,64.0,63.5,29.60,SSE,165,0.0,0.0,98,0.00,,,0.00,meteohub,2013-06-28 09:07:00,
2013-06-28 05:12:00,64.0,63.5,29.60,SSE,165,0.0,0.0,98,0.00,,,0.00,meteohub,2013-06-28 09:12:00,
2013-06-28 05:17:00,64.2,63.7,29.60,SSE,165,0.0,0.0,98,0.00,,,0.00,meteohub,2013-06-28 09:17:00,
2013-06-28 05:22:00,64.2,63.7,29.60,SSE,165,0.0,0.0,98,0.00,,,0.00,meteohub,2013-06-28 09:22:00,
2013-06-28 05:27:00,64.2,63.7,29.59,SSE,165,1.0,0.0,98,0.00,,,0.00,meteohub,2013-06-28 09:27:00,
2013-06-28 05:32:00,64.2,63.7,29.59,SSE,165,0.0,1.0,98,0.00,,,0.00,meteohub,2013-06-28 09:32:00,
2013-06-28 05:37:00,64.2,63.7,29.59,SSE,165,0.0,1.0,98,0.00,,,0.00,meteohub,2013-06-28 09:37:00,
2013-06-28 05:42:00,64.2,63.7,29.59,SSE,165,0.0,1.0,98,0.00,,,0.00,meteohub,2013-06-28 09:42:00,
2013-06-28 05:47:00,64.0,63.5,29.59,SSE,165,0.0,0.0,98,0.00,,,0.00,meteohub,2013-06-28 09:47:00,
2013-06-28 05:52:00,64.0,63.5,29.59,SSE,165,0.0,0.0,98,0.00,,,0.00,meteohub,2013-06-28 09:52:00,
2013-06-28 05:57:00,64.0,63.5,29.59,SSE,165,0.0,0.0,98,0.00,,,0.00,meteohub,2013-06-28 09:57:00,
2013-06-28 06:02:00,63.9,63.3,29.58,SSE,165,0.0,0.0,98,0.00,,,0.00,meteohub,2013-06-28 10:02:00,
2013-06-28 06:07:00,63.9,63.0,29.59,SSE,165,0.0,0.0,97,0.00,,,0.00,meteohub,2013-06-28 10:07:00,
2013-06-28 06:12:00,63.9,63.3,29.58,SSE,165,0.0,0.0,98,0.00,,,0.00,meteohub,2013-06-28 10:12:00,
2013-06-28 06:17:00,63.7,62.8,29.58,SSE,165,1.0,0.0,97,0.00,,,0.00,meteohub,2013-06-28 10:17:00,
2013-06-28 06:22:00,63.7,63.1,29.59,SSE,165,0.0,2.0,98,0.00,,,0.00,meteohub,2013-06-28 10:22:00,
2013-06-28 06:27:00,63.5,63.0,29.59,SSE,165,0.0,2.0,98,0.00,,,0.00,meteohub,2013-06-28 10:27:00,
2013-06-28 06:32:00,63.5,63.0,29.59,SSE,165,0.0,2.0,98,0.00,,,0.00,meteohub,2013-06-28 10:32:00,
2013-06-28 06:37:00,63.7,63.1,29.59,SSE,165,0.0,0.0,98,0.00,,,0.00,meteohub,2013-06-28 10:37:00,
2013-06-28 06:42:00,63.7,63.1,29.59,SSE,165,0.0,0.0,98,0.00,,,0.00,meteohub,2013-06-28 10:42:00,
2013-06-28 06:47:00,63.7,63.1,29.59,SSE,165,0.0,0.0,98,0.00,,,0.00,meteohub,2013-06-28 10:47:00,
2013-06-28 06:52:00,63.9,63.3,29.59,SSE,165,0.0,0.0,98,0.00,,,0.00,meteohub,2013-06-28 10:52:00,
2013-06-28 06:57:00,63.9,63.3,29.59,SSE,165,0.0,0.0,98,0.00,,,0.00,meteohub,2013-06-28 10:57:00,
2013-06-28 07:02:00,64.0,63.5,29.58,SSE,165,0.0,0.0,98,0.00,,,0.00,meteohub,2013-06-28 11:02:00,
2013-06-28 07:07:00,64.4,63.9,29.58,SSE,165,0.0,0.0,98,0.00,,,0.00,meteohub,2013-06-28 11:07:00,
2013-06-28 07:12:00,64.8,64.2,29.58,SSE,165,0.0,0.0,98,0.00,,,0.00,meteohub,2013-06-28 11:12:00,
2013-06-28 07:17:00,64.9,64.4,29.58,SSE,165,0.0,2.0,98,0.00,,,0.00,meteohub,2013-06-28 11:17:00,
2013-06-28 07:22:00,64.9,64.4,29.58,SSE,165,0.0,2.0,98,0.00,,,0.00,meteohub,2013-06-28 11:22:00,
2013-06-28 07:27:00,65.1,64.6,29.58,SSE,165,0.0,2.0,98,0.00,,,0.00,meteohub,2013-06-28 11:27:00,
2013-06-28 07:32:00,65.1,64.6,29.57,SSE,165,0.0,1.0,98,0.00,,,0.00,meteohub,2013-06-28 11:32:00,
2013-06-28 07:37:00,65.5,64.9,29.58,SSE,165,0.0,1.0,98,0.00,,,0.00,meteohub,2013-06-28 11:37:00,
2013-06-28 07:42:00,65.7,65.1,29.57,SSE,165,0.0,1.0,98,0.00,,,0.00,meteohub,2013-06-28 11:42:00,
2013-06-28 07:47:00,65.8,65.3,29.58,SSE,165,1.0,2.0,98,0.00,,,0.00,meteohub,2013-06-28 11:47:00,
2013-06-28 07:52:00,66.0,65.5,29.58,SSE,165,1.0,2.0,98,0.00,,,0.00,meteohub,2013-06-28 11:52:00,
2013-06-28 07:57:00,66.0,65.5,29.57,SSE,164,2.0,3.0,98,0.01,,,0.01,meteohub,2013-06-28 11:57:00,
2013-06-28 08:02:00,66.2,65.7,29.58,SSE,164,0.0,3.0,98,0.01,,,0.01,meteohub,2013-06-28 12:02:00,
2013-06-28 08:07:00,66.6,66.0,29.57,SSE,164,0.0,3.0,98,0.01,,,0.01,meteohub,2013-06-28 12:07:00,
2013-06-28 08:12:00,66.7,66.2,29.57,SSE,165,0.0,3.0,98,0.01,,,0.01,meteohub,2013-06-28 12:12:00,
2013-06-28 08:17:00,66.9,66.0,29.57,SSE,151,2.0,3.0,97,0.01,,,0.01,meteohub,2013-06-28 12:17:00,
2013-06-28 08:22:00,67.5,66.6,29.57,North,355,1.0,3.0,97,0.01,,,0.01,meteohub,2013-06-28 12:22:00,
2013-06-28 08:27:00,67.6,66.4,29.57,North,0,0.0,4.0,96,0.01,,,0.01,meteohub,2013-06-28 12:27:00,
2013-06-28 08:32:00,67.8,66.4,29.57,North,355,1.0,5.0,95,0.01,,,0.01,meteohub,2013-06-28 12:32:00,
2013-06-28 08:37:00,68.4,66.9,29.57,North,5,1.0,6.0,95,0.01,,,0.01,meteohub,2013-06-28 12:37:00,
2013-06-28 08:42:00,68.7,66.6,29.57,NNE,26,3.0,6.0,93,0.01,,,0.01,meteohub,2013-06-28 12:42:00,
2013-06-28 08:47:00,69.1,66.7,29.57,North,349,3.0,6.0,92,0.01,,,0.01,meteohub,2013-06-28 12:47:00,
2013-06-28 08:52:00,69.3,66.6,29.57,NNE,19,2.0,6.0,91,0.01,,,0.01,meteohub,2013-06-28 12:52:00,
2013-06-28 08:57:00,69.6,66.2,29.57,WNW,296,4.0,6.0,89,0.00,,,0.01,meteohub,2013-06-28 12:57:00,
2013-06-28 09:02:00,70.0,66.6,29.57,NNW,340,4.0,6.0,89,0.00,,,0.01,meteohub,2013-06-28 13:02:00,
2013-06-28 09:07:00,70.2,66.0,29.57,NNW,338,1.0,5.0,87,0.00,,,0.01,meteohub,2013-06-28 13:07:00,
2013-06-28 09:12:00,70.3,66.0,29.56,NNW,346,2.0,6.0,86,0.00,,,0.01,meteohub,2013-06-28 13:12:00,
2013-06-28 09:17:00,70.5,66.4,29.56,West,281,1.0,7.0,87,0.00,,,0.01,meteohub,2013-06-28 13:17:00,
2013-06-28 09:22:00,70.9,66.2,29.56,WNW,299,2.0,7.0,85,0.00,,,0.01,meteohub,2013-06-28 13:22:00,
2013-06-28 09:27:00,71.4,66.7,29.56,NW,325,1.0,6.0,85,0.00,,,0.01,meteohub,2013-06-28 13:27:00,
2013-06-28 09:32:00,71.4,66.7,29.56,WNW,287,2.0,6.0,85,0.00,,,0.01,meteohub,2013-06-28 13:32:00,
2013-06-28 09:37:00,71.2,67.1,29.55,WNW,290,2.0,8.0,87,0.00,,,0.01,meteohub,2013-06-28 13:37:00,
2013-06-28 09:42:00,71.4,67.1,29.55,NW,315,3.0,8.0,86,0.00,,,0.01,meteohub,2013-06-28 13:42:00,
2013-06-28 09:47:00,71.1,66.7,29.55,WNW,292,2.0,8.0,86,0.00,,,0.01,meteohub,2013-06-28 13:47:00,
2013-06-28 09:52:00,71.1,66.9,29.55,NNW,338,3.0,6.0,87,0.00,,,0.01,meteohub,2013-06-28 13:52:00,
2013-06-28 09:57:00,70.9,66.6,29.55,WNW,301,3.0,8.0,86,0.00,,,0.01,meteohub,2013-06-28 13:57:00,
2013-06-28 10:02:00,70.9,66.6,29.55,North,349,2.0,8.0,86,0.00,,,0.01,meteohub,2013-06-28 14:02:00,
2013-06-28 10:07:00,71.2,66.9,29.55,North,355,2.0,8.0,86,0.00,,,0.01,meteohub,2013-06-28 14:07:00,
2013-06-28 10:12:00,72.0,67.8,29.55,NE,38,4.0,6.0,87,0.00,,,0.01,meteohub,2013-06-28 14:12:00,
2013-06-28 10:17:00,71.8,66.4,29.55,NNW,331,3.0,8.0,83,0.00,,,0.01,meteohub,2013-06-28 14:17:00,
2013-06-28 10:22:00,71.8,67.1,29.55,North,0,9.0,10.0,85,0.00,,,0.01,meteohub,2013-06-28 14:22:00,
2013-06-28 10:27:00,72.0,66.2,29.55,NNE,30,4.0,10.0,82,0.00,,,0.01,meteohub,2013-06-28 14:27:00,
2013-06-28 10:32:00,72.1,67.1,29.55,North,355,4.0,9.0,84,0.00,,,0.01,meteohub,2013-06-28 14:32:00,
2013-06-28 10:37:00,73.0,67.6,29.55,West,280,3.0,9.0,83,0.00,,,0.01,meteohub,2013-06-28 14:37:00,
2013-06-28 10:42:00,73.2,67.1,29.55,North,355,5.0,9.0,81,0.00,,,0.01,meteohub,2013-06-28 14:42:00,
2013-06-28 10:47:00,73.0,66.9,29.55,WNW,298,5.0,7.0,81,0.00,,,0.01,meteohub,2013-06-28 14:47:00,
2013-06-28 10:52:00,73.0,66.2,29.55,North,0,4.0,8.0,79,0.00,,,0.01,meteohub,2013-06-28 14:52:00,
2013-06-28 10:57:00,73.0,66.6,29.54,NNW,340,4.0,9.0,80,0.00,,,0.01,meteohub,2013-06-28 14:57:00,
2013-06-28 11:02:00,73.4,65.7,29.54,North,355,6.0,9.0,77,0.00,,,0.01,meteohub,2013-06-28 15:02:00,
2013-06-28 11:07:00,73.2,65.7,29.55,NNE,12,3.0,10.0,77,0.00,,,0.01,meteohub,2013-06-28 15:07:00,
2013-06-28 11:12:00,73.8,67.3,29.54,ENE,69,3.0,10.0,80,0.00,,,0.01,meteohub,2013-06-28 15:12:00,
2013-06-28 11:17:00,73.8,65.3,29.54,NW,321,5.0,10.0,75,0.00,,,0.01,meteohub,2013-06-28 15:17:00,
2013-06-28 11:22:00,73.9,66.2,29.54,North,355,9.0,12.0,77,0.00,,,0.01,meteohub,2013-06-28 15:22:00,
2013-06-28 11:27:00,74.5,66.0,29.54,NNE,18,5.0,12.0,75,0.00,,,0.01,meteohub,2013-06-28 15:27:00,
2013-06-28 11:32:00,74.5,66.4,29.54,NNW,334,4.0,13.0,76,0.00,,,0.01,meteohub,2013-06-28 15:32:00,
2013-06-28 11:37:00,74.8,66.4,29.55,North,5,11.0,13.0,75,0.00,,,0.01,meteohub,2013-06-28 15:37:00,
2013-06-28 11:42:00,74.7,65.8,29.54,East,80,1.0,13.0,74,0.00,,,0.01,meteohub,2013-06-28 15:42:00,
2013-06-28 11:47:00,75.0,66.2,29.54,NNW,339,3.0,12.0,74,0.00,,,0.01,meteohub,2013-06-28 15:47:00,
2013-06-28 11:52:00,74.8,64.8,29.54,North,0,8.0,11.0,71,0.00,,,0.01,meteohub,2013-06-28 15:52:00,
2013-06-28 11:57:00,75.0,66.6,29.54,NNE,12,6.0,11.0,75,0.00,,,0.01,meteohub,2013-06-28 15:57:00,
2013-06-28 12:02:00,75.0,65.8,29.54,NNE,27,4.0,11.0,73,0.00,,,0.01,meteohub,2013-06-28 16:02:00,
2013-06-28 12:07:00,75.2,66.4,29.54,NNW,348,8.0,11.0,74,0.00,,,0.01,meteohub,2013-06-28 16:07:00,
2013-06-28 12:13:00,75.4,65.7,29.54,NE,46,4.0,10.0,72,0.00,,,0.01,meteohub,2013-06-28 16:13:00,
2013-06-28 12:18:00,75.4,65.3,29.54,WNW,290,3.0,10.0,71,0.00,,,0.01,meteohub,2013-06-28 16:18:00,
2013-06-28 12:23:00,75.2,65.5,29.54,NNE,26,6.0,10.0,72,0.00,,,0.01,meteohub,2013-06-28 16:23:00,
2013-06-28 12:28:00,75.4,66.2,29.54,North,355,5.0,14.0,73,0.00,,,0.01,meteohub,2013-06-28 16:28:00,
2013-06-28 12:33:00,75.0,65.3,29.54,NNE,13,3.0,14.0,72,0.00,,,0.01,meteohub,2013-06-28 16:33:00,
2013-06-28 12:38:00,74.8,65.7,29.54,NE,36,2.0,14.0,73,0.00,,,0.01,meteohub,2013-06-28 16:38:00,
2013-06-28 12:43:00,74.7,66.2,29.54,NNW,336,4.0,13.0,75,0.00,,,0.01,meteohub,2013-06-28 16:43:00,
2013-06-28 12:48:00,73.9,65.5,29.54,NNE,19,7.0,10.0,75,0.00,,,0.01,meteohub,2013-06-28 16:48:00,
2013-06-28 12:53:00,74.3,65.5,29.54,NW,311,5.0,10.0,74,0.00,,,0.01,meteohub,2013-06-28 16:53:00,
2013-06-28 12:58:00,74.5,66.0,29.54,NE,36,2.0,10.0,75,0.00,,,0.01,meteohub,2013-06-28 16:58:00,
2013-06-28 13:03:00,74.7,66.6,29.53,NNW,340,6.0,13.0,76,0.00,,,0.01,meteohub,2013-06-28 17:03:00,
2013-06-28 13:08:00,74.8,66.0,29.53,ENE,74,8.0,13.0,74,0.00,,,0.01,meteohub,2013-06-28 17:08:00,
2013-06-28 13:13:00,75.2,66.7,29.53,NE,36,6.0,14.0,75,0.00,,,0.01,meteohub,2013-06-28 17:13:00,
2013-06-28 13:19:00,75.7,66.4,29.53,NW,322,7.0,14.0,73,0.00,,,0.01,meteohub,2013-06-28 17:19:00,
2013-06-28 13:24:00,75.4,66.2,29.53,North,5,1.0,11.0,73,0.00,,,0.01,meteohub,2013-06-28 17:24:00,
2013-06-28 13:29:00,75.4,65.3,29.53,NNW,335,7.0,10.0,71,0.00,,,0.01,meteohub,2013-06-28 17:29:00,
2013-06-28 13:34:00,74.7,66.2,29.53,NE,38,3.0,11.0,75,0.00,,,0.01,meteohub,2013-06-28 17:34:00,
2013-06-28 13:39:00,74.7,65.5,29.53,NE,46,4.0,11.0,73,0.00,,,0.01,meteohub,2013-06-28 17:39:00,
2013-06-28 13:44:00,74.7,64.6,29.53,NNE,17,6.0,11.0,71,0.00,,,0.01,meteohub,2013-06-28 17:44:00,
2013-06-28 13:49:00,74.7,65.1,29.52,NNE,17,5.0,12.0,72,0.00,,,0.01,meteohub,2013-06-28 17:49:00,
2013-06-28 13:54:00,74.5,64.4,29.53,North,355,4.0,12.0,71,0.00,,,0.01,meteohub,2013-06-28 17:54:00,
2013-06-28 13:59:00,74.1,64.6,29.52,NNW,343,3.0,12.0,72,0.00,,,0.01,meteohub,2013-06-28 17:59:00,
2013-06-28 14:04:00,74.1,64.0,29.52,North,11,5.0,12.0,71,0.00,,,0.01,meteohub,2013-06-28 18:04:00,
2013-06-28 14:10:00,73.9,64.8,29.53,NNW,333,3.0,12.0,73,0.00,,,0.01,meteohub,2013-06-28 18:10:00,
2013-06-28 14:15:00,73.9,65.5,29.53,NNW,341,6.0,12.0,75,0.00,,,0.01,meteohub,2013-06-28 18:15:00,
2013-06-28 14:20:00,74.3,65.1,29.53,NE,39,4.0,12.0,73,0.00,,,0.01,meteohub,2013-06-28 18:20:00,
2013-06-28 14:25:00,74.1,64.6,29.53,NNE,22,6.0,10.0,72,0.00,,,0.01,meteohub,2013-06-28 18:25:00,
2013-06-28 14:30:00,74.1,64.0,29.52,NE,38,5.0,10.0,71,0.00,,,0.01,meteohub,2013-06-28 18:30:00,
2013-06-28 14:35:00,73.9,64.4,29.53,NNW,348,6.0,10.0,72,0.00,,,0.01,meteohub,2013-06-28 18:35:00,
2013-06-28 14:40:00,74.1,64.9,29.53,North,5,2.0,10.0,73,0.00,,,0.01,meteohub,2013-06-28 18:40:00,
2013-06-28 14:45:00,73.9,65.1,29.53,NE,53,6.0,9.0,74,0.00,,,0.01,meteohub,2013-06-28 18:45:00,
2013-06-28 14:50:00,73.8,64.9,29.52,NNE,20,3.0,10.0,74,0.00,,,0.01,meteohub,2013-06-28 18:50:00,
2013-06-28 14:55:00,74.1,64.6,29.52,North,5,5.0,10.0,72,0.00,,,0.01,meteohub,2013-06-28 18:55:00,
2013-06-28 15:00:00,74.1,65.7,29.52,ENE,66,7.0,9.0,75,0.00,,,0.01,meteohub,2013-06-28 19:00:00,
2013-06-28 15:06:00,74.1,65.7,29.52,North,5,4.0,10.0,75,0.00,,,0.01,meteohub,2013-06-28 19:06:00,
2013-06-28 15:10:00,73.9,65.5,29.52,NNW,342,7.0,10.0,75,0.00,,,0.01,meteohub,2013-06-28 19:10:00,
2013-06-28 15:15:00,73.9,65.1,29.52,North,355,7.0,10.0,74,0.00,,,0.01,meteohub,2013-06-28 19:15:00,
2013-06-28 15:20:00,73.9,65.1,29.52,NW,305,5.0,9.0,74,0.00,,,0.01,meteohub,2013-06-28 19:20:00,
2013-06-28 15:25:00,73.6,65.1,29.52,NNE,33,3.0,12.0,75,0.00,,,0.01,meteohub,2013-06-28 19:25:00,
2013-06-28 15:30:00,73.9,65.8,29.51,NNW,348,1.0,12.0,76,0.00,,,0.01,meteohub,2013-06-28 19:30:00,
2013-06-28 15:35:00,73.9,63.9,29.51,NNE,15,1.0,9.0,71,0.00,,,0.01,meteohub,2013-06-28 19:35:00,
2013-06-28 15:40:00,73.9,65.5,29.51,ENE,61,4.0,9.0,75,0.00,,,0.01,meteohub,2013-06-28 19:40:00,
2013-06-28 15:45:00,73.9,65.5,29.50,ENE,71,2.0,10.0,75,0.00,,,0.01,meteohub,2013-06-28 19:45:00,
2013-06-28 15:50:00,74.3,65.8,29.50,West,267,2.0,10.0,75,0.00,,,0.01,meteohub,2013-06-28 19:50:00,
2013-06-28 15:55:00,74.3,65.1,29.50,North,5,5.0,10.0,73,0.00,,,0.01,meteohub,2013-06-28 19:55:00,
2013-06-28 16:00:00,74.5,65.3,29.50,NE,38,4.0,6.0,73,0.00,,,0.01,meteohub,2013-06-28 20:00:00,
2013-06-28 16:05:00,74.5,64.9,29.50,North,5,4.0,9.0,72,0.00,,,0.01,meteohub,2013-06-28 20:05:00,
2013-06-28 16:11:00,74.7,64.6,29.51,North,355,1.0,9.0,71,0.00,,,0.01,meteohub,2013-06-28 20:11:00,
2013-06-28 16:16:00,74.7,65.5,29.52,ENE,71,4.0,9.0,73,0.00,,,0.01,meteohub,2013-06-28 20:16:00,
2013-06-28 16:21:00,74.5,65.3,29.52,North,0,2.0,7.0,73,0.00,,,0.01,meteohub,2013-06-28 20:21:00,
2013-06-28 16:26:00,73.9,64.4,29.52,ENE,73,3.0,7.0,72,0.00,,,0.01,meteohub,2013-06-28 20:26:00,
2013-06-28 16:31:00,73.6,64.8,29.52,NW,311,5.0,8.0,74,0.00,,,0.01,meteohub,2013-06-28 20:31:00,
2013-06-28 16:36:00,73.4,63.9,29.52,NNW,344,3.0,8.0,72,0.00,,,0.01,meteohub,2013-06-28 20:36:00,
2013-06-28 16:41:00,73.2,64.0,29.52,NNW,348,2.0,8.0,73,0.00,,,0.01,meteohub,2013-06-28 20:41:00,
2013-06-28 16:46:00,73.8,64.6,29.52,NNW,346,1.0,7.0,73,0.00,,,0.01,meteohub,2013-06-28 20:46:00,
2013-06-28 16:51:00,73.6,64.4,29.52,NNE,17,4.0,8.0,73,0.00,,,0.01,meteohub,2013-06-28 20:51:00,
2013-06-28 16:56:00,72.9,64.4,29.52,ENE,57,3.0,8.0,75,0.00,,,0.01,meteohub,2013-06-28 20:56:00,
2013-06-28 17:01:00,72.9,65.7,29.52,North,5,2.0,10.0,78,0.00,,,0.01,meteohub,2013-06-28 21:01:00,
2013-06-28 17:07:00,73.2,65.7,29.52,North,11,5.0,10.0,77,0.00,,,0.01,meteohub,2013-06-28 21:07:00,
2013-06-28 17:12:00,73.4,65.7,29.52,NNW,336,3.0,10.0,77,0.00,,,0.01,meteohub,2013-06-28 21:12:00,
2013-06-28 17:17:00,73.6,65.1,29.52,North,11,3.0,11.0,75,0.00,,,0.01,meteohub,2013-06-28 21:17:00,
2013-06-28 17:22:00,73.6,65.5,29.52,ENE,74,1.0,11.0,76,0.00,,,0.01,meteohub,2013-06-28 21:22:00,
2013-06-28 17:27:00,73.2,64.8,29.52,NNW,327,4.0,11.0,75,0.00,,,0.01,meteohub,2013-06-28 21:27:00,
2013-06-28 17:32:00,72.7,64.8,29.51,NNE,24,4.0,8.0,76,0.00,,,0.01,meteohub,2013-06-28 21:32:00,
2013-06-28 17:37:00,72.3,64.4,29.52,NE,40,2.0,8.0,76,0.00,,,0.01,meteohub,2013-06-28 21:37:00,
2013-06-28 17:42:00,72.1,63.9,29.52,NNE,30,2.0,9.0,75,0.00,,,0.01,meteohub,2013-06-28 21:42:00,
2013-06-28 17:47:00,72.0,63.1,29.51,North,11,2.0,9.0,74,0.00,,,0.01,meteohub,2013-06-28 21:47:00,
2013-06-28 17:52:00,71.8,63.5,29.52,NNW,347,3.0,9.0,75,0.00,,,0.01,meteohub,2013-06-28 21:52:00,
2013-06-28 17:57:00,71.4,63.5,29.52,North,0,2.0,8.0,76,0.00,,,0.01,meteohub,2013-06-28 21:57:00,
2013-06-28 18:02:00,71.4,63.5,29.52,NE,35,4.0,8.0,76,0.00,,,0.01,meteohub,2013-06-28 22:02:00,
2013-06-28 18:07:00,71.1,63.5,29.52,NNE,26,1.0,8.0,77,0.00,,,0.01,meteohub,2013-06-28 22:07:00,
2013-06-28 18:12:00,71.2,64.4,29.51,ENE,65,2.0,9.0,79,0.00,,,0.01,meteohub,2013-06-28 22:12:00,
2013-06-28 18:18:00,71.6,64.4,29.51,North,9,7.0,9.0,78,0.00,,,0.01,meteohub,2013-06-28 22:18:00,
2013-06-28 18:23:00,71.2,64.0,29.51,NNW,346,2.0,9.0,78,0.00,,,0.01,meteohub,2013-06-28 22:23:00,
2013-06-28 18:28:00,71.2,64.0,29.51,ENE,58,5.0,9.0,78,0.00,,,0.01,meteohub,2013-06-28 22:28:00,
2013-06-28 18:33:00,71.6,64.4,29.51,ENE,74,3.0,8.0,78,0.00,,,0.01,meteohub,2013-06-28 22:33:00,
2013-06-28 18:38:00,72.0,64.4,29.51,NNE,23,3.0,8.0,77,0.00,,,0.01,meteohub,2013-06-28 22:38:00,
2013-06-28 18:43:00,72.1,64.9,29.51,NNE,29,4.0,10.0,78,0.00,,,0.01,meteohub,2013-06-28 22:43:00,
2013-06-28 18:48:00,72.5,65.3,29.51,East,82,2.0,10.0,78,0.00,,,0.01,meteohub,2013-06-28 22:48:00,
2013-06-28 18:53:00,72.1,64.2,29.51,NNE,19,1.0,10.0,76,0.00,,,0.01,meteohub,2013-06-28 22:53:00,
2013-06-28 18:58:00,71.6,63.7,29.51,NE,34,1.0,7.0,76,0.00,,,0.01,meteohub,2013-06-28 22:58:00,
2013-06-28 19:03:00,71.2,64.0,29.52,NNE,16,2.0,7.0,78,0.00,,,0.01,meteohub,2013-06-28 23:03:00,
2013-06-28 19:08:00,70.9,63.7,29.52,NNW,337,2.0,7.0,78,0.00,,,0.01,meteohub,2013-06-28 23:08:00,
2013-06-28 19:13:00,70.3,63.5,29.52,ENE,65,2.0,7.0,79,0.00,,,0.01,meteohub,2013-06-28 23:13:00,
2013-06-28 19:19:00,70.2,63.3,29.53,North,5,4.0,7.0,79,0.00,,,0.01,meteohub,2013-06-28 23:19:00,
2013-06-28 19:24:00,70.0,63.5,29.53,NNE,14,1.0,7.0,80,0.00,,,0.01,meteohub,2013-06-28 23:24:00,
2013-06-28 19:29:00,69.8,63.3,29.53,NNE,18,2.0,7.0,80,0.00,,,0.01,meteohub,2013-06-28 23:29:00,
2013-06-28 19:34:00,69.8,63.3,29.53,North,5,0.0,9.0,80,0.00,,,0.01,meteohub,2013-06-28 23:34:00,
2013-06-28 19:39:00,69.4,62.6,29.53,NNE,16,3.0,9.0,79,0.00,,,0.01,meteohub,2013-06-28 23:39:00,
2013-06-28 19:44:00,69.3,62.4,29.53,NNW,346,2.0,9.0,79,0.00,,,0.01,meteohub,2013-06-28 23:44:00,
2013-06-28 19:49:00,69.1,62.6,29.53,NNW,340,2.0,6.0,80,0.00,,,0.01,meteohub,2013-06-28 23:49:00,
2013-06-28 19:54:00,68.7,61.9,29.54,North,5,2.0,6.0,79,0.00,,,0.01,meteohub,2013-06-28 23:54:00,
2013-06-28 19:59:00,68.4,61.2,29.54,NNW,346,3.0,7.0,78,0.00,,,0.01,meteohub,2013-06-28 23:59:00,
2013-06-28 20:04:00,68.2,61.0,29.54,North,0,1.0,7.0,78,0.00,,,0.01,meteohub,2013-06-29 00:04:00,
2013-06-28 20:09:00,68.2,61.3,29.54,North,0,0.0,7.0,79,0.00,,,0.00,meteohub,2013-06-29 00:09:00,
2013-06-28 20:14:00,67.8,61.0,29.54,North,355,1.0,6.0,79,0.00,,,0.00,meteohub,2013-06-29 00:14:00,
2013-06-28 20:19:00,67.8,61.0,29.54,North,0,2.0,5.0,79,0.00,,,0.00,meteohub,2013-06-29 00:19:00,
2013-06-28 20:25:00,67.6,61.2,29.54,NNW,348,3.0,5.0,80,0.00,,,0.00,meteohub,2013-06-29 00:25:00,
2013-06-28 20:30:00,67.5,61.2,29.54,NNW,345,0.0,5.0,80,0.00,,,0.00,meteohub,2013-06-29 00:30:00,
2013-06-28 20:35:00,67.3,61.2,29.54,NNE,24,1.0,5.0,81,0.00,,,0.00,meteohub,2013-06-29 00:35:00,
2013-06-28 20:40:00,67.3,61.2,29.54,NNE,23,1.0,5.0,81,0.00,,,0.00,meteohub,2013-06-29 00:40:00,
2013-06-28 20:45:00,67.1,61.3,29.54,North,355,2.0,5.0,82,0.00,,,0.00,meteohub,2013-06-29 00:45:00,
2013-06-28 20:50:00,66.9,61.2,29.54,ENE,61,2.0,5.0,82,0.00,,,0.00,meteohub,2013-06-29 00:50:00,
2013-06-28 20:55:00,66.7,61.3,29.54,NNW,346,3.0,4.0,83,0.00,,,0.00,meteohub,2013-06-29 00:55:00,
2013-06-28 21:00:00,66.7,61.3,29.54,NNE,15,0.0,5.0,83,0.00,,,0.00,meteohub,2013-06-29 01:00:00,
2013-06-28 21:05:00,66.6,61.2,29.54,North,5,1.0,5.0,83,0.00,,,0.00,meteohub,2013-06-29 01:05:00,
2013-06-28 21:10:00,66.4,61.3,29.55,North,5,1.0,4.0,84,0.00,,,0.00,meteohub,2013-06-29 01:10:00,
2013-06-28 21:15:00,66.4,61.7,29.55,North,5,3.0,4.0,85,0.00,,,0.00,meteohub,2013-06-29 01:15:00,
2013-06-28 21:20:00,66.0,61.3,29.55,North,5,0.0,3.0,85,0.00,,,0.00,meteohub,2013-06-29 01:20:00,
2013-06-28 21:26:00,65.8,61.2,29.55,North,5,0.0,3.0,85,0.00,,,0.00,meteohub,2013-06-29 01:26:00,
2013-06-28 21:31:00,65.7,61.3,29.55,North,5,2.0,3.0,86,0.00,,,0.00,meteohub,2013-06-29 01:31:00,
2013-06-28 21:36:00,65.7,61.7,29.55,North,5,0.0,3.0,87,0.00,,,0.00,meteohub,2013-06-29 01:36:00,
2013-06-28 21:41:00,65.5,61.5,29.54,North,5,2.0,3.0,87,0.00,,,0.00,meteohub,2013-06-29 01:41:00,
2013-06-28 21:46:00,65.1,61.2,29.54,North,5,0.0,2.0,87,0.00,,,0.00,meteohub,2013-06-29 01:46:00,
2013-06-28 21:51:00,64.9,61.3,29.55,North,5,1.0,2.0,88,0.00,,,0.00,meteohub,2013-06-29 01:51:00,
2013-06-28 21:56:00,64.9,61.3,29.55,North,5,0.0,2.0,88,0.00,,,0.00,meteohub,2013-06-29 01:56:00,
2013-06-28 22:01:00,64.8,61.5,29.54,North,5,0.0,2.0,89,0.00,,,0.00,meteohub,2013-06-29 02:01:00,
2013-06-28 22:06:00,64.6,61.3,29.54,WNW,300,3.0,3.0,89,0.00,,,0.00,meteohub,2013-06-29 02:06:00,
2013-06-28 22:11:00,64.6,61.5,29.54,WNW,300,0.0,4.0,90,0.00,,,0.00,meteohub,2013-06-29 02:11:00,
2013-06-28 22:16:00,64.4,61.3,29.54,WNW,300,0.0,4.0,90,0.00,,,0.00,meteohub,2013-06-29 02:16:00,
2013-06-28 22:21:00,64.2,61.2,29.54,WNW,300,0.0,4.0,90,0.00,,,0.00,meteohub,2013-06-29 02:21:00,
2013-06-28 22:26:00,64.0,61.3,29.54,WNW,300,1.0,2.0,91,0.00,,,0.00,meteohub,2013-06-29 02:26:00,
2013-06-28 22:32:00,63.9,61.2,29.54,WNW,300,0.0,2.0,91,0.00,,,0.00,meteohub,2013-06-29 02:32:00,
2013-06-28 22:37:00,63.9,61.5,29.54,WNW,300,0.0,2.0,92,0.00,,,0.00,meteohub,2013-06-29 02:37:00,
2013-06-28 22:42:00,63.7,61.3,29.54,WNW,300,0.0,2.0,92,0.00,,,0.00,meteohub,2013-06-29 02:42:00,
2013-06-28 22:47:00,63.7,61.3,29.54,WNW,300,0.0,2.0,92,0.00,,,0.00,meteohub,2013-06-29 02:47:00,
2013-06-28 22:52:00,63.7,61.3,29.54,WNW,300,0.0,2.0,92,0.00,,,0.00,meteohub,2013-06-29 02:52:00,
2013-06-28 22:57:00,63.7,61.7,29.54,WNW,300,0.0,1.0,93,0.00,,,0.00,meteohub,2013-06-29 02:57:00,
2013-06-28 23:02:00,63.7,61.7,29.54,WNW,300,0.0,1.0,93,0.00,,,0.00,meteohub,2013-06-29 03:02:00,
2013-06-28 23:07:00,63.7,61.7,29.54,WNW,300,1.0,2.0,93,0.00,,,0.00,meteohub,2013-06-29 03:07:00,
2013-06-28 23:12:00,63.7,61.7,29.53,WNW,300,1.0,2.0,93,0.00,,,0.00,meteohub,2013-06-29 03:12:00,
2013-06-28 23:17:00,63.7,61.7,29.53,WNW,300,0.0,3.0,93,0.00,,,0.00,meteohub,2013-06-29 03:17:00,
2013-06-28 23:22:00,63.7,61.7,29.53,WNW,300,2.0,3.0,93,0.00,,,0.00,meteohub,2013-06-29 03:22:00,
2013-06-28 23:27:00,63.7,61.7,29.53,WNW,300,2.0,3.0,93,0.00,,,0.00,meteohub,2013-06-29 03:27:00,
2013-06-28 23:32:00,63.7,61.7,29.53,WNW,300,1.0,3.0,93,0.00,,,0.00,meteohub,2013-06-29 03:32:00,
2013-06-28 23:37:00,63.9,61.9,29.54,WNW,300,1.0,3.0,93,0.00,,,0.00,meteohub,2013-06-29 03:37:00,
2013-06-28 23:42:00,63.9,61.9,29.53,WNW,300,1.0,3.0,93,0.00,,,0.00,meteohub,2013-06-29 03:42:00,
2013-06-28 23:47:00,63.9,61.9,29.53,NW,313,3.0,3.0,93,0.00,,,0.00,meteohub,2013-06-29 03:47:00,
2013-06-28 23:52:00,63.9,61.9,29.53,NW,313,2.0,3.0,93,0.00,,,0.00,meteohub,2013-06-29 03:52:00,
2013-06-28 23:57:00,63.9,61.9,29.53,WNW,298,2.0,4.0,93,0.00,,,0.00,meteohub,2013-06-29 03:57:00,